Federação Gaúcha de Vôo Livre

4ª Etapa Campeonato Gaúcho de Asa Delta 2016 ( 2016-10-22 a 2016-10-23 )

Resultado Categoria: Elite

2016-10-22 Igrejinha_P1

Corrida para o Gol 49,2 km

No Dist. Nome Raio
(metros)
Coordenadas Abre Fecha
1 0,0 km SI14 1 Lat: -29.52817 Lon: -50.84255 13:30:00-02:00 15:00:00-02:00
2 SS 3,0 km SI14 3000 Lat: -29.52817 Lon: -50.84255 14:30:00-02:00 15:30:00-02:00
3 18,3 km SI05 400 Lat: -29.65542 Lon: -50.96974 14:30:00-02:00 18:30:00-02:00
4 24,0 km SI12 1000 Lat: -29.63115 Lon: -50.90273 14:30:00-02:00 18:30:00-02:00
5 30,3 km SI03 400 Lat: -29.61837 Lon: -50.98043 14:30:00-02:00 18:30:00-02:00
6 ES 47,6 km SI15 2000 Lat: -29.55455 Lon: -50.79087 14:30:00-02:00 18:30:00-02:00
7 49,2 km SI15 400 Lat: -29.55455 Lon: -50.79087 14:30:00-02:00 18:30:00-02:00


Pos. CIVLID Nome Equipamento Patrocinador SS ES Tempo km/h Dist. Pontos
Dist.
Pontos
Lid.
Pontos
Tempo
Pontos
Cheg.
Total
1 17116 Marcelo Ferreira Moyes Litespeed RX 3.5 14:30:00 16:32:45 02:02:45 21,8 49,22 682,3 55,6 222,4 39,7 1000
2 14772 Cesar Castro Moyes Litespeed RX 3.5 www.italmaquinas.com.br 14:30:00 16:43:21 02:13:21 20,1 49,22 682,3 42,9 167,3 13,1 906
3 7044 Mario Andre Felske Moyes Litespeed RX 3.5 14:30:00 25,90 520,2 27,5 548
4 1000007 Alessandro Taschetto Moyes Litespeed RX 3.5 14:30:00 26,16 522,4 21,6 544
5 47758 Marcelo Pesenti Moyes Litespeed RX 3.5 14:30:00 24,24 501,3 22,4 524
6 18385 Dainer Kemp Moyes Litespeed S 5 14:30:00 22,57 478,2 8,3 487
6 7447 Rafael Mello Moyes Litespeed RX 3.5 14:30:00 21,84 466,4 20,9 487
8 21591 André Nora Lucena Moyes Litespeed RS 4 14:30:00 19,88 430,3 5,1 435
9 18384 Evandro Muller Moyes Litespeed S 5 14:30:00 18,99 412,0 13,3 425
10 18391 Julio Leonidas Krebs Aeros Combat L 13 14:30:00 18,32 396,7 11,2 408
11 49909 Andre Luciano da Silva Moyes Litespeed RS 3.5 14:30:00 18,05 389,9 7,0 397
12 48047 Gerson Silva Moyes Litespeed RS 3.5 14:30:00 17,90 385,8 10,5 396
13 1000013 Ricardo Dasembrock Aeros Combat L 14 14:30:00 15,73 320,8 321

Pilotos não apurados (NYP)

CIVLID Nome